createdAt,value
2018-03-25T00:01:27.685Z,20.83
2018-03-25T00:03:54.263Z,19.25
2018-03-25T00:06:20.821Z,24.30
2018-03-25T00:08:47.662Z,30.67
2018-03-25T00:11:14.384Z,28.08
2018-03-25T00:13:41.094Z,29.12
2018-03-25T00:16:08.132Z,31.65
2018-03-25T00:18:35.146Z,31.15
2018-03-25T00:21:01.690Z,30.83
2018-03-25T00:23:28.521Z,35.67
2018-03-25T00:25:55.303Z,35.25
2018-03-25T00:28:22.390Z,33.42
2018-03-25T00:30:49.679Z,36.22
2018-03-25T00:33:16.305Z,29.05
2018-03-25T00:35:42.746Z,32.33
2018-03-25T00:38:09.370Z,35.03
2018-03-25T00:40:36.103Z,33.85
2018-03-25T00:43:02.626Z,29.83
2018-03-25T00:45:29.728Z,29.37
2018-03-25T00:47:56.379Z,30.17
2018-03-25T00:50:23.242Z,28.38
2018-03-25T00:52:49.906Z,30.98
2018-03-25T00:55:17.164Z,31.37
2018-03-25T00:57:43.779Z,29.12
2018-03-25T01:00:10.588Z,26.05
2018-03-25T01:02:37.223Z,31.87
2018-03-25T01:05:03.794Z,23.48
2018-03-25T01:07:30.832Z,21.62
2018-03-25T01:09:57.709Z,17.27
2018-03-25T01:12:24.631Z,11.05
2018-03-25T01:14:51.483Z,11.27
2018-03-25T01:17:18.154Z,10.05
2018-03-25T01:19:45.127Z,10.50
2018-03-25T01:22:11.579Z,9.82
2018-03-25T01:24:38.309Z,8.20
2018-03-25T01:27:05.314Z,8.23
2018-03-25T01:29:32.507Z,8.82
2018-03-25T01:31:58.945Z,7.75
2018-03-25T01:34:25.543Z,9.07
2018-03-25T01:36:52.187Z,8.82
2018-03-25T01:39:19.169Z,8.27
2018-03-25T01:41:45.870Z,8.02
2018-03-25T01:44:12.512Z,8.77
2018-03-25T01:46:39.209Z,8.88
2018-03-25T01:49:05.982Z,8.23
2018-03-25T01:51:32.468Z,8.85
2018-03-25T01:53:59.027Z,8.82
2018-03-25T01:56:25.651Z,9.35
2018-03-25T01:58:52.860Z,10.10
2018-03-25T02:01:19.403Z,10.77
2018-03-25T02:03:46.207Z,10.43
2018-03-25T02:06:12.963Z,9.57
2018-03-25T02:08:39.863Z,11.38
2018-03-25T02:11:06.826Z,9.45
2018-03-25T02:13:33.279Z,10.00
2018-03-25T02:16:00.137Z,9.60
2018-03-25T02:18:26.763Z,10.52
2018-03-25T02:20:53.501Z,10.15
2018-03-25T02:23:20.121Z,9.32
2018-03-25T02:25:46.755Z,10.35
2018-03-25T02:28:13.465Z,9.60
2018-03-25T02:30:40.126Z,9.00
2018-03-25T02:33:06.679Z,8.98
2018-03-25T02:35:33.314Z,9.07
2018-03-25T02:38:00.021Z,10.35
2018-03-25T02:40:26.544Z,10.05
2018-03-25T02:42:53.544Z,9.00
2018-03-25T02:45:20.283Z,9.30
2018-03-25T02:47:47.032Z,10.32
2018-03-25T02:50:13.676Z,9.75
2018-03-25T02:52:40.060Z,10.75
2018-03-25T02:55:06.507Z,9.90
2018-03-25T02:57:33.129Z,10.43
2018-03-25T03:00:00.025Z,10.38
2018-03-25T03:02:27.354Z,10.75
2018-03-25T03:04:54.032Z,10.90
2018-03-25T03:07:21.103Z,10.93
2018-03-25T03:09:47.669Z,10.63
2018-03-25T03:12:14.369Z,11.98
2018-03-25T03:14:41.588Z,10.80
2018-03-25T03:17:08.114Z,11.18
2018-03-25T03:19:35.158Z,11.75
2018-03-25T03:22:01.835Z,12.18
2018-03-25T03:24:28.719Z,11.32
2018-03-25T03:26:55.678Z,11.32
2018-03-25T03:29:22.501Z,11.80
2018-03-25T03:31:48.865Z,11.25
2018-03-25T03:34:15.738Z,11.80
2018-03-25T03:36:42.934Z,12.20
2018-03-25T03:39:09.715Z,11.93
2018-03-25T03:41:43.565Z,11.75
2018-03-25T03:44:10.207Z,12.60
2018-03-25T03:46:36.577Z,11.77
2018-03-25T03:49:03.370Z,11.50
2018-03-25T03:51:29.944Z,13.50
2018-03-25T03:53:56.593Z,12.45
2018-03-25T03:56:23.135Z,13.13
2018-03-25T03:58:49.738Z,12.88
2018-03-25T04:01:16.185Z,12.30
2018-03-25T04:03:42.741Z,12.05
2018-03-25T04:06:09.149Z,12.40
2018-03-25T04:08:35.907Z,12.02
2018-03-25T04:11:02.546Z,13.15
2018-03-25T04:13:29.101Z,12.63
2018-03-25T04:15:56.070Z,12.50
2018-03-25T04:18:22.915Z,11.77
2018-03-25T04:20:49.550Z,11.80
2018-03-25T04:23:16.731Z,13.18
2018-03-25T04:25:43.377Z,12.30
2018-03-25T04:28:10.194Z,12.13
2018-03-25T04:30:36.848Z,11.32
2018-03-25T04:33:03.762Z,12.65
2018-03-25T04:35:30.594Z,12.98
2018-03-25T04:37:57.028Z,11.93
2018-03-25T04:40:23.706Z,11.25
2018-03-25T04:42:50.174Z,11.88
2018-03-25T04:45:16.601Z,10.93
2018-03-25T04:47:43.230Z,9.75
2018-03-25T04:50:09.965Z,10.50
2018-03-25T04:52:36.614Z,10.85
2018-03-25T04:55:03.428Z,10.75
2018-03-25T04:57:30.007Z,10.07
2018-03-25T04:59:57.278Z,10.20
2018-03-25T05:02:23.866Z,10.07
2018-03-25T05:04:51.148Z,10.48
2018-03-25T05:07:17.588Z,9.88
2018-03-25T05:09:44.633Z,9.55
2018-03-25T05:12:11.610Z,9.45
2018-03-25T05:14:38.195Z,8.93
2018-03-25T05:17:04.825Z,9.27
2018-03-25T05:19:31.586Z,10.20
2018-03-25T05:21:59.018Z,9.98
2018-03-25T05:24:26.072Z,9.90
2018-03-25T05:26:52.889Z,9.80
2018-03-25T05:32:01.003Z,10.90
2018-03-25T05:34:27.990Z,11.05
2018-03-25T05:36:54.806Z,10.95
2018-03-25T05:39:21.418Z,10.15
2018-03-25T05:41:47.881Z,13.77
2018-03-25T05:44:15.415Z,11.07
2018-03-25T05:46:42.094Z,11.60
2018-03-25T05:49:08.689Z,10.70
2018-03-25T05:51:35.328Z,11.65
2018-03-25T05:54:02.301Z,10.40
2018-03-25T05:56:28.852Z,11.80
2018-03-25T05:58:55.727Z,11.02
2018-03-25T06:01:22.972Z,11.18
2018-03-25T06:03:49.521Z,11.85
2018-03-25T06:06:16.584Z,11.60
2018-03-25T06:08:43.132Z,10.75
2018-03-25T06:11:10.269Z,10.65
2018-03-25T06:13:36.696Z,10.85
2018-03-25T06:16:03.869Z,11.55
2018-03-25T06:18:30.606Z,11.52
2018-03-25T06:20:57.190Z,10.70
2018-03-25T06:23:23.985Z,12.30
2018-03-25T06:25:50.583Z,11.40
2018-03-25T06:28:17.383Z,10.60
2018-03-25T06:30:44.187Z,11.90
2018-03-25T06:33:10.898Z,12.65
2018-03-25T06:35:37.915Z,13.43
2018-03-25T06:38:04.773Z,12.90
2018-03-25T06:40:31.514Z,12.43
2018-03-25T06:42:58.393Z,12.15
2018-03-25T06:45:25.091Z,13.23
2018-03-25T06:47:51.562Z,12.63
2018-03-25T06:56:27.105Z,12.20
2018-03-25T06:58:54.692Z,12.18
2018-03-25T07:01:21.576Z,12.68
2018-03-25T07:03:48.461Z,13.13
2018-03-25T07:06:15.112Z,12.25
2018-03-25T07:08:41.585Z,13.18
2018-03-25T07:11:08.062Z,11.73
2018-03-25T07:13:34.605Z,12.10
2018-03-25T07:16:02.026Z,12.45
2018-03-25T07:18:32.352Z,12.15
2018-03-25T07:20:59.279Z,11.93
2018-03-25T07:23:26.107Z,11.98
2018-03-25T07:25:53.298Z,14.20
2018-03-25T07:28:20.194Z,12.55
2018-03-25T07:30:46.762Z,12.90
2018-03-25T07:33:13.373Z,11.57
2018-03-25T07:35:40.096Z,11.27
2018-03-25T07:38:07.335Z,11.43
2018-03-25T07:40:34.212Z,11.93
2018-03-25T07:43:00.823Z,12.10
2018-03-25T07:45:27.514Z,10.93
2018-03-25T07:47:54.104Z,11.38
2018-03-25T07:50:20.542Z,11.38
2018-03-25T07:52:46.986Z,11.38
2018-03-25T07:55:13.560Z,10.48
2018-03-25T07:57:40.515Z,11.05
2018-03-25T08:00:07.218Z,12.98
2018-03-25T08:02:34.476Z,13.25
2018-03-25T08:05:01.630Z,12.30
2018-03-25T08:07:28.374Z,12.05
2018-03-25T08:09:55.123Z,11.90
2018-03-25T08:12:21.662Z,12.05
2018-03-25T08:14:48.121Z,10.23
2018-03-25T08:17:14.737Z,10.80
2018-03-25T08:19:41.164Z,10.60
2018-03-25T08:22:08.190Z,10.20
2018-03-25T08:24:35.234Z,11.52
2018-03-25T08:27:01.944Z,11.77
2018-03-25T08:29:28.634Z,12.25
2018-03-25T08:31:55.404Z,12.00
2018-03-25T08:34:22.473Z,10.45
2018-03-25T08:36:49.059Z,12.00
2018-03-25T08:39:16.665Z,11.63
2018-03-25T08:41:43.616Z,10.60
2018-03-25T08:44:10.347Z,11.70
2018-03-25T08:46:36.964Z,11.70
2018-03-25T08:49:03.750Z,11.60
2018-03-25T08:51:30.389Z,11.77
2018-03-25T08:53:57.772Z,12.20
2018-03-25T08:56:25.071Z,11.35
2018-03-25T08:58:51.518Z,11.57
2018-03-25T09:01:18.192Z,12.18
2018-03-25T09:03:45.037Z,11.25
2018-03-25T09:06:12.493Z,11.70
2018-03-25T09:08:39.298Z,11.60
2018-03-25T09:11:06.078Z,11.63
2018-03-25T09:13:33.128Z,12.77
2018-03-25T09:15:59.621Z,12.27
2018-03-25T09:18:26.213Z,10.90
2018-03-25T09:20:52.736Z,12.18
2018-03-25T09:23:19.314Z,12.77
2018-03-25T09:25:46.001Z,13.73
2018-03-25T09:28:12.502Z,13.48
2018-03-25T09:30:39.054Z,12.48
2018-03-25T09:33:05.717Z,11.70
2018-03-25T09:35:32.263Z,11.68
2018-03-25T09:37:59.092Z,13.00
2018-03-25T09:40:25.800Z,14.02
2018-03-25T09:42:52.202Z,13.20
2018-03-25T09:45:19.368Z,14.30
2018-03-25T09:47:46.106Z,14.00
2018-03-25T09:50:12.690Z,13.10
2018-03-25T09:52:39.494Z,15.40
2018-03-25T09:55:06.393Z,13.05
2018-03-25T09:57:33.177Z,14.38
2018-03-25T09:59:59.962Z,14.23
2018-03-25T10:02:26.967Z,14.00
2018-03-25T10:04:53.925Z,12.02
2018-03-25T10:07:21.334Z,12.73
2018-03-25T10:09:47.902Z,13.62
2018-03-25T10:12:15.017Z,12.07
2018-03-25T10:14:41.699Z,12.63
2018-03-25T10:17:08.182Z,13.05
2018-03-25T10:19:34.711Z,13.48
2018-03-25T10:22:01.834Z,12.23
2018-03-25T10:24:28.375Z,13.05
2018-03-25T10:26:54.938Z,12.57
2018-03-25T10:29:21.485Z,11.18
2018-03-25T10:31:48.273Z,13.18
2018-03-25T10:34:15.035Z,13.40
2018-03-25T10:36:42.031Z,13.93
2018-03-25T10:39:08.722Z,13.60
2018-03-25T10:41:35.473Z,12.65
2018-03-25T10:44:02.035Z,13.73
2018-03-25T10:46:28.695Z,15.15
2018-03-25T10:48:55.214Z,13.98
2018-03-25T10:51:21.924Z,14.70
2018-03-25T10:53:48.843Z,14.15
2018-03-25T10:56:15.526Z,14.98
2018-03-25T10:58:42.275Z,15.23
2018-03-25T11:01:09.014Z,13.05
2018-03-25T11:03:35.570Z,12.65
2018-03-25T11:06:02.160Z,12.40
2018-03-25T11:08:29.315Z,12.98
2018-03-25T11:10:55.981Z,13.27
2018-03-25T11:13:22.502Z,13.27
2018-03-25T11:15:48.993Z,14.80
2018-03-25T11:18:15.604Z,13.20
2018-03-25T11:20:42.285Z,13.02
2018-03-25T11:23:08.765Z,13.80
2018-03-25T11:25:35.208Z,14.13
2018-03-25T11:28:01.966Z,13.20
2018-03-25T11:30:28.455Z,18.35
2018-03-25T11:32:55.066Z,15.82
2018-03-25T11:35:21.489Z,15.43
2018-03-25T11:37:47.937Z,15.05
2018-03-25T11:40:14.454Z,14.77
2018-03-25T11:42:41.071Z,15.80
2018-03-25T11:45:07.709Z,16.00
2018-03-25T11:47:34.352Z,15.20
2018-03-25T11:50:00.844Z,15.55
2018-03-25T11:52:27.457Z,14.82
2018-03-25T11:54:54.213Z,15.25
2018-03-25T11:57:20.818Z,14.82
2018-03-25T11:59:47.265Z,14.60
2018-03-25T12:02:13.858Z,15.20
2018-03-25T12:04:40.788Z,15.52
2018-03-25T12:07:07.717Z,14.30
2018-03-25T12:09:34.367Z,16.92
2018-03-25T12:12:00.799Z,18.23
2018-03-25T12:14:27.282Z,18.02
2018-03-25T12:16:54.588Z,16.08
2018-03-25T12:19:21.180Z,16.50
2018-03-25T12:21:47.751Z,18.55
2018-03-25T12:24:14.659Z,19.67
2018-03-25T12:26:41.435Z,16.67
2018-03-25T12:29:07.980Z,18.02
2018-03-25T12:31:34.756Z,16.20
2018-03-25T12:34:01.295Z,16.95
2018-03-25T12:36:27.677Z,17.70
2018-03-25T12:38:54.428Z,16.12
2018-03-25T12:41:21.116Z,17.33
2018-03-25T12:43:47.771Z,15.25
2018-03-25T12:46:14.560Z,14.57
2018-03-25T12:48:41.113Z,14.90
2018-03-25T12:51:07.949Z,14.07
2018-03-25T12:53:34.683Z,14.87
2018-03-25T12:56:01.253Z,15.80
2018-03-25T12:58:27.843Z,16.37
2018-03-25T13:00:54.275Z,15.30
2018-03-25T13:03:20.791Z,15.85
2018-03-25T13:05:48.445Z,17.12
2018-03-25T13:08:14.947Z,17.62
2018-03-25T13:10:41.452Z,17.10
2018-03-25T13:13:07.997Z,16.67
2018-03-25T13:15:34.686Z,16.80
2018-03-25T13:18:01.366Z,17.67
2018-03-25T13:20:27.753Z,18.37
2018-03-25T13:22:54.466Z,18.45
2018-03-25T13:25:21.144Z,17.35
2018-03-25T13:27:47.534Z,17.75
2018-03-25T13:30:14.195Z,17.00
2018-03-25T13:32:40.814Z,16.80
2018-03-25T13:35:08.104Z,16.05
2018-03-25T13:37:34.521Z,17.60
2018-03-25T13:40:01.365Z,16.62
2018-03-25T13:42:27.942Z,16.42
2018-03-25T13:44:54.340Z,18.95
2018-03-25T13:47:21.131Z,16.83
2018-03-25T13:49:48.119Z,18.85
2018-03-25T13:52:14.866Z,17.50
2018-03-25T13:54:41.603Z,18.87
2018-03-25T13:57:08.146Z,17.02
2018-03-25T13:59:35.050Z,17.80
2018-03-25T14:02:01.865Z,17.50
2018-03-25T14:04:28.546Z,16.60
2018-03-25T14:06:54.985Z,15.50
2018-03-25T14:09:21.557Z,17.52
2018-03-25T14:11:48.575Z,16.35
2018-03-25T14:14:15.454Z,16.37
2018-03-25T14:16:42.107Z,15.82
2018-03-25T14:19:08.964Z,17.10
2018-03-25T14:21:35.567Z,16.08
2018-03-25T14:24:02.547Z,16.70
2018-03-25T14:26:29.265Z,16.85
2018-03-25T14:28:55.821Z,18.15
2018-03-25T14:31:22.408Z,17.42
2018-03-25T14:33:49.453Z,18.25
2018-03-25T14:36:16.003Z,16.62
2018-03-25T14:38:42.714Z,16.08
2018-03-25T14:41:09.468Z,17.60
2018-03-25T14:43:36.542Z,18.77
2018-03-25T14:46:03.454Z,17.92
2018-03-25T14:48:29.992Z,18.12
2018-03-25T14:50:56.479Z,20.35
2018-03-25T14:53:23.091Z,18.60
2018-03-25T14:55:49.677Z,18.23
2018-03-25T14:58:16.194Z,17.10
2018-03-25T15:00:42.661Z,16.02
2018-03-25T15:03:09.133Z,15.55
2018-03-25T15:05:35.586Z,18.73
2018-03-25T15:08:02.213Z,15.80
2018-03-25T15:10:29.427Z,17.37
2018-03-25T15:12:56.278Z,16.02
2018-03-25T15:15:22.795Z,16.87
2018-03-25T15:17:49.497Z,18.40
2018-03-25T15:20:15.925Z,16.17
2018-03-25T15:22:42.412Z,17.33
2018-03-25T15:25:09.027Z,15.95
2018-03-25T15:27:36.091Z,14.95
2018-03-25T15:30:03.161Z,16.70
2018-03-25T15:32:30.238Z,17.17
2018-03-25T15:34:56.691Z,17.90
2018-03-25T15:37:23.278Z,17.65
2018-03-25T15:39:50.166Z,17.37
2018-03-25T15:42:16.825Z,19.20
2018-03-25T15:44:43.961Z,16.60
2018-03-25T15:47:10.876Z,15.23
2018-03-25T15:49:37.381Z,18.30
2018-03-25T15:52:04.723Z,18.12
2018-03-25T15:54:31.278Z,15.93
2018-03-25T15:56:57.841Z,16.55
2018-03-25T15:59:24.745Z,19.62
2018-03-25T16:01:51.698Z,18.08
2018-03-25T16:04:18.526Z,19.00
2018-03-25T16:06:45.329Z,18.60
2018-03-25T16:09:11.929Z,17.67
2018-03-25T16:11:39.156Z,16.92
2018-03-25T16:14:05.838Z,17.70
2018-03-25T16:16:32.283Z,16.48
2018-03-25T16:18:59.103Z,15.90
2018-03-25T16:21:25.819Z,17.17
2018-03-25T16:23:52.387Z,16.95
2018-03-25T16:26:18.853Z,17.17
2018-03-25T16:28:45.515Z,17.42
2018-03-25T16:31:12.059Z,17.23
2018-03-25T16:33:38.758Z,19.52
2018-03-25T16:36:05.557Z,20.40
2018-03-25T16:38:32.050Z,22.37
2018-03-25T16:40:58.722Z,22.95
2018-03-25T16:43:25.238Z,19.77
2018-03-25T16:45:51.786Z,22.75
2018-03-25T16:48:18.350Z,21.37
2018-03-25T16:50:45.114Z,22.50
2018-03-25T16:53:11.862Z,22.27
2018-03-25T16:55:38.432Z,19.83
2018-03-25T16:58:04.937Z,20.85
2018-03-25T17:00:32.126Z,22.85
2018-03-25T17:02:58.929Z,21.40
2018-03-25T17:05:25.877Z,22.58
2018-03-25T17:07:52.510Z,21.25
2018-03-25T17:10:19.114Z,21.15
2018-03-25T17:12:45.901Z,21.30
2018-03-25T17:15:12.540Z,20.98
2018-03-25T17:17:39.148Z,20.83
2018-03-25T17:20:05.969Z,22.50
2018-03-25T17:22:32.418Z,22.35
2018-03-25T17:24:59.083Z,19.73
2018-03-25T17:27:25.678Z,21.40
2018-03-25T17:29:52.287Z,21.23
2018-03-25T17:32:19.075Z,21.35
2018-03-25T17:34:45.585Z,21.83
2018-03-25T17:37:12.129Z,20.45
2018-03-25T17:39:38.738Z,21.70
2018-03-25T17:42:05.408Z,24.20
2018-03-25T17:44:31.958Z,21.20
2018-03-25T17:46:58.895Z,22.52
2018-03-25T17:49:25.585Z,25.00
2018-03-25T17:51:52.811Z,22.90
2018-03-25T17:54:19.519Z,24.58
2018-03-25T17:56:46.303Z,23.40
2018-03-25T17:59:12.794Z,25.48
2018-03-25T18:01:39.758Z,24.60
2018-03-25T18:04:06.214Z,26.25
2018-03-25T18:06:32.968Z,25.33
2018-03-25T18:11:11.167Z,26.58
2018-03-25T18:13:37.582Z,23.70
2018-03-25T18:16:04.430Z,24.90
2018-03-25T18:18:30.806Z,22.80
2018-03-25T18:20:57.346Z,24.00
2018-03-25T18:23:23.899Z,22.55
2018-03-25T18:25:50.451Z,22.00
2018-03-25T18:28:17.166Z,23.50
2018-03-25T18:30:43.847Z,23.25
2018-03-25T18:33:17.392Z,23.65
2018-03-25T18:35:44.284Z,23.35
2018-03-25T18:38:11.146Z,22.33
2018-03-25T18:40:37.759Z,23.08
2018-03-25T18:43:04.468Z,22.83
2018-03-25T18:45:31.390Z,22.30
2018-03-25T18:47:58.621Z,22.10
2018-03-25T18:50:25.286Z,21.48
2018-03-25T18:52:51.733Z,21.17
2018-03-25T18:55:18.776Z,21.15
2018-03-25T18:57:45.477Z,19.67
2018-03-25T19:00:12.566Z,23.10
2018-03-25T19:02:39.485Z,25.92
2018-03-25T19:05:06.283Z,23.27
2018-03-25T19:07:32.657Z,20.52
2018-03-25T19:09:59.285Z,20.73
2018-03-25T19:12:26.150Z,19.30
2018-03-25T19:14:52.859Z,21.33
2018-03-25T19:17:19.672Z,19.80
2018-03-25T19:19:46.216Z,19.65
2018-03-25T19:22:13.194Z,18.00
2018-03-25T19:24:40.164Z,19.37
2018-03-25T19:27:06.865Z,17.98
2018-03-25T19:29:33.625Z,19.58
2018-03-25T19:32:00.311Z,18.55
2018-03-25T19:34:26.814Z,18.58
2018-03-25T19:36:53.483Z,18.00
2018-03-25T19:39:20.354Z,17.75
2018-03-25T19:41:46.991Z,17.73
2018-03-25T19:44:13.754Z,17.65
2018-03-25T19:46:40.914Z,17.45
2018-03-25T19:49:07.430Z,18.25
2018-03-25T19:51:34.191Z,19.00
2018-03-25T19:54:01.104Z,18.42
2018-03-25T19:56:27.927Z,17.55
2018-03-25T19:58:54.512Z,19.35
2018-03-25T20:01:21.206Z,18.92
2018-03-25T20:03:47.879Z,18.02
2018-03-25T20:06:14.560Z,18.45
2018-03-25T20:08:41.413Z,19.00
2018-03-25T20:11:08.153Z,19.67
2018-03-25T20:13:34.691Z,17.67
2018-03-25T20:16:01.290Z,19.95
2018-03-25T20:18:27.893Z,20.08
2018-03-25T20:20:54.538Z,20.23
2018-03-25T20:23:21.225Z,19.00
2018-03-25T20:25:48.829Z,20.08
2018-03-25T20:28:15.362Z,19.95
2018-03-25T20:30:41.860Z,20.90
2018-03-25T20:33:08.462Z,20.52
2018-03-25T20:35:34.838Z,18.83
2018-03-25T20:38:01.411Z,19.23
2018-03-25T20:40:27.869Z,18.27
2018-03-25T20:42:54.463Z,18.58
2018-03-25T20:45:21.020Z,17.12
2018-03-25T20:47:47.745Z,17.00
2018-03-25T20:50:14.195Z,16.37
2018-03-25T20:52:40.728Z,15.43
2018-03-25T20:55:07.747Z,16.23
2018-03-25T20:57:34.294Z,16.42
2018-03-25T21:00:01.056Z,16.87
2018-03-25T21:02:27.473Z,17.55
2018-03-25T21:04:53.939Z,17.83
2018-03-25T21:07:20.575Z,17.08
2018-03-25T21:09:47.228Z,17.05
2018-03-25T21:12:13.926Z,17.83
2018-03-25T21:14:40.543Z,17.45
2018-03-25T21:17:07.262Z,18.17
2018-03-25T21:19:33.913Z,16.98
2018-03-25T21:22:00.597Z,15.23
2018-03-25T21:24:27.243Z,14.55
2018-03-25T21:26:54.039Z,15.15
2018-03-25T21:29:20.796Z,14.93
2018-03-25T21:31:47.311Z,15.18
2018-03-25T21:34:14.702Z,14.25
2018-03-25T21:36:41.327Z,13.73
2018-03-25T21:39:07.997Z,13.70
2018-03-25T21:41:34.538Z,13.07
2018-03-25T21:44:01.113Z,12.60
2018-03-25T21:46:27.865Z,13.45
2018-03-25T21:48:54.516Z,13.48
2018-03-25T21:51:21.040Z,13.25
2018-03-25T21:53:47.518Z,11.93
2018-03-25T21:56:14.170Z,13.00
2018-03-25T21:58:41.128Z,12.88
2018-03-25T22:01:08.418Z,14.00
2018-03-25T22:03:34.962Z,13.30
2018-03-25T22:06:01.677Z,12.57
2018-03-25T22:08:28.569Z,11.85
2018-03-25T22:10:55.397Z,13.20
2018-03-25T22:13:22.273Z,12.02
2018-03-25T22:15:48.823Z,13.30
2018-03-25T22:18:15.289Z,13.18
2018-03-25T22:20:42.406Z,12.50
2018-03-25T22:23:09.141Z,11.07
2018-03-25T22:25:36.036Z,11.25
2018-03-25T22:28:02.630Z,12.15
2018-03-25T22:30:29.166Z,10.68
2018-03-25T22:32:55.653Z,11.93
2018-03-25T22:35:22.114Z,12.48
2018-03-25T22:37:48.901Z,11.48
2018-03-25T22:40:15.288Z,12.93
2018-03-25T22:42:41.859Z,11.73
2018-03-25T22:45:08.844Z,11.23
2018-03-25T22:47:35.471Z,11.50
2018-03-25T22:50:02.558Z,13.18
2018-03-25T22:52:29.319Z,11.35
2018-03-25T22:54:55.937Z,10.43
2018-03-25T22:57:22.550Z,12.00
2018-03-25T22:59:49.427Z,12.45
2018-03-25T23:02:15.870Z,14.10
2018-03-25T23:04:42.518Z,12.10
2018-03-25T23:07:08.997Z,11.80
2018-03-25T23:09:35.607Z,11.23
2018-03-25T23:12:02.077Z,11.23
2018-03-25T23:14:28.730Z,12.30
2018-03-25T23:16:55.150Z,11.27
2018-03-25T23:19:22.012Z,11.35
2018-03-25T23:21:49.114Z,11.07
2018-03-25T23:24:16.062Z,11.25
2018-03-25T23:26:42.770Z,9.77
2018-03-25T23:29:10.013Z,10.57
2018-03-25T23:31:36.665Z,10.00
2018-03-25T23:34:03.093Z,9.80
2018-03-25T23:36:29.872Z,10.65
2018-03-25T23:38:56.248Z,11.18
2018-03-25T23:41:22.953Z,10.05
2018-03-25T23:43:49.532Z,11.05
2018-03-25T23:46:16.084Z,10.50
2018-03-25T23:48:42.787Z,10.15
2018-03-25T23:51:09.389Z,10.90
2018-03-25T23:53:36.235Z,10.57
2018-03-25T23:56:02.759Z,10.85
2018-03-25T23:58:29.218Z,8.88
